sensor_id;sensor_type;location;lat;lon;timestamp;temperature;humidity
81315;DHT22;72214;52.510;5.718;2023-09-18T00:00:18;18.00;82.90
81315;DHT22;72214;52.510;5.718;2023-09-18T00:02:47;18.00;83.00
81315;DHT22;72214;52.510;5.718;2023-09-18T00:05:17;18.00;83.00
81315;DHT22;72214;52.510;5.718;2023-09-18T00:07:48;18.00;83.00
81315;DHT22;72214;52.510;5.718;2023-09-18T00:10:18;18.00;83.00
81315;DHT22;72214;52.510;5.718;2023-09-18T00:12:47;18.10;83.00
81315;DHT22;72214;52.510;5.718;2023-09-18T00:15:16;18.10;83.00
81315;DHT22;72214;52.510;5.718;2023-09-18T00:17:45;18.10;83.10
81315;DHT22;72214;52.510;5.718;2023-09-18T00:20:14;18.10;83.00
81315;DHT22;72214;52.510;5.718;2023-09-18T00:22:45;18.10;83.10
81315;DHT22;72214;52.510;5.718;2023-09-18T00:25:16;18.10;83.10
81315;DHT22;72214;52.510;5.718;2023-09-18T00:27:46;18.10;83.20
81315;DHT22;72214;52.510;5.718;2023-09-18T00:30:15;18.20;83.10
81315;DHT22;72214;52.510;5.718;2023-09-18T00:32:44;18.20;83.20
81315;DHT22;72214;52.510;5.718;2023-09-18T00:35:17;18.20;83.20
81315;DHT22;72214;52.510;5.718;2023-09-18T00:37:46;18.20;83.20
81315;DHT22;72214;52.510;5.718;2023-09-18T00:40:19;18.20;83.20
81315;DHT22;72214;52.510;5.718;2023-09-18T00:42:48;18.20;83.20
81315;DHT22;72214;52.510;5.718;2023-09-18T00:45:17;18.20;83.20
81315;DHT22;72214;52.510;5.718;2023-09-18T00:47:46;18.20;83.20
81315;DHT22;72214;52.510;5.718;2023-09-18T00:50:16;18.20;83.20
81315;DHT22;72214;52.510;5.718;2023-09-18T00:52:46;18.20;83.20
81315;DHT22;72214;52.510;5.718;2023-09-18T00:55:19;18.30;83.20
81315;DHT22;72214;52.510;5.718;2023-09-18T00:57:48;18.30;83.20
81315;DHT22;72214;52.510;5.718;2023-09-18T01:00:17;18.30;83.20
81315;DHT22;72214;52.510;5.718;2023-09-18T01:02:47;18.30;83.30
81315;DHT22;72214;52.510;5.718;2023-09-18T01:05:16;18.30;83.30
81315;DHT22;72214;52.510;5.718;2023-09-18T01:07:46;18.30;83.30
81315;DHT22;72214;52.510;5.718;2023-09-18T01:10:19;18.30;83.30
81315;DHT22;72214;52.510;5.718;2023-09-18T01:12:59;18.20;83.30
81315;DHT22;72214;52.510;5.718;2023-09-18T01:15:38;18.20;83.30
81315;DHT22;72214;52.510;5.718;2023-09-18T01:18:11;18.20;83.40
81315;DHT22;72214;52.510;5.718;2023-09-18T01:20:40;18.20;83.30
81315;DHT22;72214;52.510;5.718;2023-09-18T01:23:12;18.30;83.30
81315;DHT22;72214;52.510;5.718;2023-09-18T01:25:41;18.30;83.30
81315;DHT22;72214;52.510;5.718;2023-09-18T01:28:10;18.30;83.20
81315;DHT22;72214;52.510;5.718;2023-09-18T01:30:40;18.30;83.30
81315;DHT22;72214;52.510;5.718;2023-09-18T01:33:10;18.30;83.20
81315;DHT22;72214;52.510;5.718;2023-09-18T01:35:40;18.30;83.20
81315;DHT22;72214;52.510;5.718;2023-09-18T01:38:13;18.30;83.20
81315;DHT22;72214;52.510;5.718;2023-09-18T01:40:42;18.30;83.30
81315;DHT22;72214;52.510;5.718;2023-09-18T01:43:12;18.30;83.20
81315;DHT22;72214;52.510;5.718;2023-09-18T01:45:43;18.30;83.20
81315;DHT22;72214;52.510;5.718;2023-09-18T01:48:12;18.30;83.20
81315;DHT22;72214;52.510;5.718;2023-09-18T01:50:41;18.30;83.20
81315;DHT22;72214;52.510;5.718;2023-09-18T01:53:13;18.40;83.20
81315;DHT22;72214;52.510;5.718;2023-09-18T01:55:42;18.40;83.20
81315;DHT22;72214;52.510;5.718;2023-09-18T01:58:12;18.30;83.20
81315;DHT22;72214;52.510;5.718;2023-09-18T02:00:41;18.30;83.20
81315;DHT22;72214;52.510;5.718;2023-09-18T02:03:11;18.30;83.20
81315;DHT22;72214;52.510;5.718;2023-09-18T02:05:40;18.30;83.20
81315;DHT22;72214;52.510;5.718;2023-09-18T02:08:13;18.40;83.20
81315;DHT22;72214;52.510;5.718;2023-09-18T02:10:42;18.30;83.20
81315;DHT22;72214;52.510;5.718;2023-09-18T02:13:11;18.40;83.20
81315;DHT22;72214;52.510;5.718;2023-09-18T02:15:40;18.40;83.30
81315;DHT22;72214;52.510;5.718;2023-09-18T02:18:09;18.40;83.30
81315;DHT22;72214;52.510;5.718;2023-09-18T02:20:40;18.40;83.20
81315;DHT22;72214;52.510;5.718;2023-09-18T02:23:13;18.40;83.30
81315;DHT22;72214;52.510;5.718;2023-09-18T02:25:42;18.40;83.30
81315;DHT22;72214;52.510;5.718;2023-09-18T02:28:13;18.40;83.30
81315;DHT22;72214;52.510;5.718;2023-09-18T02:30:42;18.40;83.30
81315;DHT22;72214;52.510;5.718;2023-09-18T02:33:13;18.40;83.30
81315;DHT22;72214;52.510;5.718;2023-09-18T02:35:42;18.40;83.30
81315;DHT22;72214;52.510;5.718;2023-09-18T02:38:14;18.40;83.40
81315;DHT22;72214;52.510;5.718;2023-09-18T02:40:43;18.50;83.40
81315;DHT22;72214;52.510;5.718;2023-09-18T02:43:12;18.50;83.40
81315;DHT22;72214;52.510;5.718;2023-09-18T02:45:41;18.50;83.40
81315;DHT22;72214;52.510;5.718;2023-09-18T02:48:11;18.50;83.40
81315;DHT22;72214;52.510;5.718;2023-09-18T02:50:41;18.50;83.40
81315;DHT22;72214;52.510;5.718;2023-09-18T02:53:17;18.50;83.40
81315;DHT22;72214;52.510;5.718;2023-09-18T02:55:49;18.50;83.50
81315;DHT22;72214;52.510;5.718;2023-09-18T02:58:18;18.50;83.40
81315;DHT22;72214;52.510;5.718;2023-09-18T03:00:49;18.60;83.40
81315;DHT22;72214;52.510;5.718;2023-09-18T03:03:18;18.60;83.40
81315;DHT22;72214;52.510;5.718;2023-09-18T03:05:48;18.60;83.50
81315;DHT22;72214;52.510;5.718;2023-09-18T03:08:20;18.70;83.40
81315;DHT22;72214;52.510;5.718;2023-09-18T03:10:49;18.60;83.50
81315;DHT22;72214;52.510;5.718;2023-09-18T03:13:18;18.70;83.50
81315;DHT22;72214;52.510;5.718;2023-09-18T03:15:47;18.70;83.50
81315;DHT22;72214;52.510;5.718;2023-09-18T03:18:16;18.70;83.50
81315;DHT22;72214;52.510;5.718;2023-09-18T03:20:45;18.70;83.50
81315;DHT22;72214;52.510;5.718;2023-09-18T03:23:15;18.70;83.50
81315;DHT22;72214;52.510;5.718;2023-09-18T03:25:47;18.70;83.40
81315;DHT22;72214;52.510;5.718;2023-09-18T03:28:16;18.80;83.50
81315;DHT22;72214;52.510;5.718;2023-09-18T03:30:45;18.80;83.50
81315;DHT22;72214;52.510;5.718;2023-09-18T03:33:14;18.80;83.50
81315;DHT22;72214;52.510;5.718;2023-09-18T03:35:47;18.80;83.50
81315;DHT22;72214;52.510;5.718;2023-09-18T03:38:19;18.80;83.50
81315;DHT22;72214;52.510;5.718;2023-09-18T03:40:51;18.80;83.50
81315;DHT22;72214;52.510;5.718;2023-09-18T03:43:20;18.80;83.50
81315;DHT22;72214;52.510;5.718;2023-09-18T03:45:50;18.80;83.40
81315;DHT22;72214;52.510;5.718;2023-09-18T03:48:19;18.80;83.50
81315;DHT22;72214;52.510;5.718;2023-09-18T03:50:49;18.80;83.50
81315;DHT22;72214;52.510;5.718;2023-09-18T03:53:18;18.80;83.50
81315;DHT22;72214;52.510;5.718;2023-09-18T03:55:51;18.80;83.50
81315;DHT22;72214;52.510;5.718;2023-09-18T03:58:20;18.80;83.50
81315;DHT22;72214;52.510;5.718;2023-09-18T04:00:49;18.80;83.50
81315;DHT22;72214;52.510;5.718;2023-09-18T04:03:18;18.80;83.50
81315;DHT22;72214;52.510;5.718;2023-09-18T04:05:48;18.80;83.50
81315;DHT22;72214;52.510;5.718;2023-09-18T04:08:17;18.80;83.50
81315;DHT22;72214;52.510;5.718;2023-09-18T04:10:46;18.80;83.50
81315;DHT22;72214;52.510;5.718;2023-09-18T04:13:18;18.80;83.50
81315;DHT22;72214;52.510;5.718;2023-09-18T04:15:47;18.80;83.50
81315;DHT22;72214;52.510;5.718;2023-09-18T04:18:16;18.80;83.60
81315;DHT22;72214;52.510;5.718;2023-09-18T04:20:45;18.80;83.60
81315;DHT22;72214;52.510;5.718;2023-09-18T04:23:21;18.80;83.60
81315;DHT22;72214;52.510;5.718;2023-09-18T04:25:53;18.80;83.60
81315;DHT22;72214;52.510;5.718;2023-09-18T04:28:26;18.80;83.60
81315;DHT22;72214;52.510;5.718;2023-09-18T04:30:56;18.80;83.70
81315;DHT22;72214;52.510;5.718;2023-09-18T04:33:27;18.80;83.70
81315;DHT22;72214;52.510;5.718;2023-09-18T04:35:57;18.80;83.70
81315;DHT22;72214;52.510;5.718;2023-09-18T04:38:26;18.80;83.70
81315;DHT22;72214;52.510;5.718;2023-09-18T04:40:58;18.80;83.70
81315;DHT22;72214;52.510;5.718;2023-09-18T04:43:31;18.80;83.70
81315;DHT22;72214;52.510;5.718;2023-09-18T04:46:01;18.80;83.70
81315;DHT22;72214;52.510;5.718;2023-09-18T04:48:32;18.80;83.70
81315;DHT22;72214;52.510;5.718;2023-09-18T04:51:03;18.80;83.70
81315;DHT22;72214;52.510;5.718;2023-09-18T04:53:32;18.80;83.70
81315;DHT22;72214;52.510;5.718;2023-09-18T04:56:02;18.80;83.70
81315;DHT22;72214;52.510;5.718;2023-09-18T04:58:34;18.80;83.70
81315;DHT22;72214;52.510;5.718;2023-09-18T05:01:03;18.80;83.70
81315;DHT22;72214;52.510;5.718;2023-09-18T05:03:37;18.80;83.70
81315;DHT22;72214;52.510;5.718;2023-09-18T05:06:06;18.80;83.70
81315;DHT22;72214;52.510;5.718;2023-09-18T05:08:35;18.80;83.80
81315;DHT22;72214;52.510;5.718;2023-09-18T05:11:05;18.80;83.80
81315;DHT22;72214;52.510;5.718;2023-09-18T05:13:37;18.80;83.80
81315;DHT22;72214;52.510;5.718;2023-09-18T05:16:06;18.80;83.90
81315;DHT22;72214;52.510;5.718;2023-09-18T05:18:36;18.80;83.70
81315;DHT22;72214;52.510;5.718;2023-09-18T05:21:05;18.80;83.90
81315;DHT22;72214;52.510;5.718;2023-09-18T05:23:35;18.80;83.90
81315;DHT22;72214;52.510;5.718;2023-09-18T05:26:04;18.80;83.90
81315;DHT22;72214;52.510;5.718;2023-09-18T05:28:33;18.70;83.90
81315;DHT22;72214;52.510;5.718;2023-09-18T05:31:05;18.80;83.90
81315;DHT22;72214;52.510;5.718;2023-09-18T05:33:35;18.80;83.90
81315;DHT22;72214;52.510;5.718;2023-09-18T05:36:04;18.80;83.90
81315;DHT22;72214;52.510;5.718;2023-09-18T05:38:34;18.80;83.90
81315;DHT22;72214;52.510;5.718;2023-09-18T05:41:03;18.90;84.00
81315;DHT22;72214;52.510;5.718;2023-09-18T05:43:32;18.90;84.00
81315;DHT22;72214;52.510;5.718;2023-09-18T05:46:04;18.90;84.00
81315;DHT22;72214;52.510;5.718;2023-09-18T05:48:33;18.90;84.00
81315;DHT22;72214;52.510;5.718;2023-09-18T05:51:02;18.90;84.00
81315;DHT22;72214;52.510;5.718;2023-09-18T05:53:32;18.90;84.00
81315;DHT22;72214;52.510;5.718;2023-09-18T05:56:01;19.00;84.00
81315;DHT22;72214;52.510;5.718;2023-09-18T05:58:30;19.00;84.00
81315;DHT22;72214;52.510;5.718;2023-09-18T06:01:01;19.00;84.00
81315;DHT22;72214;52.510;5.718;2023-09-18T06:03:33;18.90;84.10
81315;DHT22;72214;52.510;5.718;2023-09-18T06:06:04;18.90;84.10
81315;DHT22;72214;52.510;5.718;2023-09-18T06:08:34;18.90;84.20
81315;DHT22;72214;52.510;5.718;2023-09-18T06:11:03;18.90;84.20
81315;DHT22;72214;52.510;5.718;2023-09-18T06:13:32;18.90;84.20
81315;DHT22;72214;52.510;5.718;2023-09-18T06:16:02;18.90;84.20
81315;DHT22;72214;52.510;5.718;2023-09-18T06:18:37;18.90;84.30
81315;DHT22;72214;52.510;5.718;2023-09-18T06:21:06;18.90;84.30
81315;DHT22;72214;52.510;5.718;2023-09-18T06:23:35;18.90;84.30
81315;DHT22;72214;52.510;5.718;2023-09-18T06:26:04;18.90;84.40
81315;DHT22;72214;52.510;5.718;2023-09-18T06:28:34;19.00;84.40
81315;DHT22;72214;52.510;5.718;2023-09-18T06:31:03;19.00;84.30
81315;DHT22;72214;52.510;5.718;2023-09-18T06:33:32;19.00;84.40
81315;DHT22;72214;52.510;5.718;2023-09-18T06:36:04;19.00;84.50
81315;DHT22;72214;52.510;5.718;2023-09-18T06:38:34;19.00;84.40
81315;DHT22;72214;52.510;5.718;2023-09-18T06:41:03;18.90;84.50
81315;DHT22;72214;52.510;5.718;2023-09-18T06:43:32;18.90;84.50
81315;DHT22;72214;52.510;5.718;2023-09-18T06:46:01;18.90;84.50
81315;DHT22;72214;52.510;5.718;2023-09-18T06:48:30;18.90;84.50
81315;DHT22;72214;52.510;5.718;2023-09-18T06:51:03;18.90;84.50
81315;DHT22;72214;52.510;5.718;2023-09-18T06:53:32;18.90;84.60
81315;DHT22;72214;52.510;5.718;2023-09-18T06:56:01;18.90;84.60
81315;DHT22;72214;52.510;5.718;2023-09-18T06:58:32;18.90;84.60
81315;DHT22;72214;52.510;5.718;2023-09-18T07:01:01;19.00;84.60
81315;DHT22;72214;52.510;5.718;2023-09-18T07:03:32;19.00;84.60
81315;DHT22;72214;52.510;5.718;2023-09-18T07:06:05;19.00;84.50
81315;DHT22;72214;52.510;5.718;2023-09-18T07:08:34;19.00;84.50
81315;DHT22;72214;52.510;5.718;2023-09-18T07:11:03;19.00;84.50
81315;DHT22;72214;52.510;5.718;2023-09-18T07:13:30;19.00;84.50
81315;DHT22;72214;52.510;5.718;2023-09-18T07:15:59;19.00;84.50
81315;DHT22;72214;52.510;5.718;2023-09-18T07:18:30;19.00;84.50
81315;DHT22;72214;52.510;5.718;2023-09-18T07:20:59;19.00;84.50
81315;DHT22;72214;52.510;5.718;2023-09-18T07:23:31;19.10;84.60
81315;DHT22;72214;52.510;5.718;2023-09-18T07:26:01;19.10;84.60
81315;DHT22;72214;52.510;5.718;2023-09-18T07:28:30;19.10;84.60
81315;DHT22;72214;52.510;5.718;2023-09-18T07:31:05;19.10;84.60
81315;DHT22;72214;52.510;5.718;2023-09-18T07:33:35;19.10;84.60
81315;DHT22;72214;52.510;5.718;2023-09-18T07:36:04;19.10;84.60
81315;DHT22;72214;52.510;5.718;2023-09-18T07:38:36;19.10;84.60
81315;DHT22;72214;52.510;5.718;2023-09-18T07:41:06;19.20;84.60
81315;DHT22;72214;52.510;5.718;2023-09-18T07:43:35;19.20;84.70
81315;DHT22;72214;52.510;5.718;2023-09-18T07:46:06;19.20;84.60
81315;DHT22;72214;52.510;5.718;2023-09-18T07:48:35;19.20;84.70
81315;DHT22;72214;52.510;5.718;2023-09-18T07:51:04;19.20;84.60
81315;DHT22;72214;52.510;5.718;2023-09-18T07:53:36;19.20;84.70
81315;DHT22;72214;52.510;5.718;2023-09-18T07:56:05;19.30;84.70
81315;DHT22;72214;52.510;5.718;2023-09-18T07:58:34;19.30;84.70
81315;DHT22;72214;52.510;5.718;2023-09-18T08:01:05;19.30;84.70
81315;DHT22;72214;52.510;5.718;2023-09-18T08:03:35;19.30;84.70
81315;DHT22;72214;52.510;5.718;2023-09-18T08:06:04;19.30;84.70
81315;DHT22;72214;52.510;5.718;2023-09-18T08:08:36;19.30;84.70
81315;DHT22;72214;52.510;5.718;2023-09-18T08:11:08;19.40;84.80
81315;DHT22;72214;52.510;5.718;2023-09-18T08:13:37;19.40;84.80
81315;DHT22;72214;52.510;5.718;2023-09-18T08:16:07;19.40;84.70
81315;DHT22;72214;52.510;5.718;2023-09-18T08:18:36;19.50;84.70
81315;DHT22;72214;52.510;5.718;2023-09-18T08:21:07;19.50;84.70
81315;DHT22;72214;52.510;5.718;2023-09-18T08:23:39;19.50;84.70
81315;DHT22;72214;52.510;5.718;2023-09-18T08:26:08;19.50;84.70
81315;DHT22;72214;52.510;5.718;2023-09-18T08:28:37;19.50;84.70
81315;DHT22;72214;52.510;5.718;2023-09-18T08:31:09;19.50;84.80
81315;DHT22;72214;52.510;5.718;2023-09-18T08:33:39;19.50;84.80
81315;DHT22;72214;52.510;5.718;2023-09-18T08:36:08;19.50;84.70
81315;DHT22;72214;52.510;5.718;2023-09-18T08:38:41;19.60;84.70
81315;DHT22;72214;52.510;5.718;2023-09-18T08:41:12;19.70;84.70
81315;DHT22;72214;52.510;5.718;2023-09-18T08:43:43;19.70;84.70
81315;DHT22;72214;52.510;5.718;2023-09-18T08:46:12;19.70;84.60
81315;DHT22;72214;52.510;5.718;2023-09-18T08:48:42;19.70;84.60
81315;DHT22;72214;52.510;5.718;2023-09-18T08:51:13;19.70;84.70
81315;DHT22;72214;52.510;5.718;2023-09-18T08:53:46;19.70;84.60
81315;DHT22;72214;52.510;5.718;2023-09-18T08:56:17;19.80;84.60
81315;DHT22;72214;52.510;5.718;2023-09-18T08:58:47;19.80;84.50
81315;DHT22;72214;52.510;5.718;2023-09-18T09:01:17;19.80;84.50
81315;DHT22;72214;52.510;5.718;2023-09-18T09:03:47;19.90;84.50
81315;DHT22;72214;52.510;5.718;2023-09-18T09:06:16;19.90;84.50
81315;DHT22;72214;52.510;5.718;2023-09-18T09:08:49;20.00;84.40
81315;DHT22;72214;52.510;5.718;2023-09-18T09:11:19;20.00;84.50
81315;DHT22;72214;52.510;5.718;2023-09-18T09:14:09;20.10;84.30
81315;DHT22;72214;52.510;5.718;2023-09-18T09:16:46;20.30;84.20
81315;DHT22;72214;52.510;5.718;2023-09-18T09:19:16;20.30;84.20
81315;DHT22;72214;52.510;5.718;2023-09-18T09:21:46;20.30;84.10
81315;DHT22;72214;52.510;5.718;2023-09-18T09:24:36;20.30;84.00
81315;DHT22;72214;52.510;5.718;2023-09-18T09:27:05;20.40;84.00
81315;DHT22;72214;52.510;5.718;2023-09-18T09:29:35;20.40;84.10
81315;DHT22;72214;52.510;5.718;2023-09-18T09:32:14;20.50;84.00
81315;DHT22;72214;52.510;5.718;2023-09-18T09:34:47;20.50;83.90
81315;DHT22;72214;52.510;5.718;2023-09-18T09:37:17;20.50;83.90
81315;DHT22;72214;52.510;5.718;2023-09-18T09:39:50;20.50;83.90
81315;DHT22;72214;52.510;5.718;2023-09-18T09:42:20;20.50;83.90
81315;DHT22;72214;52.510;5.718;2023-09-18T09:45:02;20.60;83.70
81315;DHT22;72214;52.510;5.718;2023-09-18T09:47:35;20.60;83.60
81315;DHT22;72214;52.510;5.718;2023-09-18T09:50:08;20.70;83.60
81315;DHT22;72214;52.510;5.718;2023-09-18T09:52:43;20.70;83.60
81315;DHT22;72214;52.510;5.718;2023-09-18T09:55:27;20.80;83.60
81315;DHT22;72214;52.510;5.718;2023-09-18T09:57:58;20.80;83.50
81315;DHT22;72214;52.510;5.718;2023-09-18T10:00:30;20.90;83.40
81315;DHT22;72214;52.510;5.718;2023-09-18T10:03:04;21.00;83.20
81315;DHT22;72214;52.510;5.718;2023-09-18T10:05:36;21.00;83.10
81315;DHT22;72214;52.510;5.718;2023-09-18T10:08:08;21.00;83.10
81315;DHT22;72214;52.510;5.718;2023-09-18T10:10:44;21.00;83.00
81315;DHT22;72214;52.510;5.718;2023-09-18T10:13:17;21.00;83.00
81315;DHT22;72214;52.510;5.718;2023-09-18T10:15:49;20.90;83.00
81315;DHT22;72214;52.510;5.718;2023-09-18T10:18:25;20.90;83.00
81315;DHT22;72214;52.510;5.718;2023-09-18T10:21:00;20.90;82.90
81315;DHT22;72214;52.510;5.718;2023-09-18T10:23:40;20.80;83.00
81315;DHT22;72214;52.510;5.718;2023-09-18T10:26:22;20.80;83.00
81315;DHT22;72214;52.510;5.718;2023-09-18T10:28:56;20.70;83.00
81315;DHT22;72214;52.510;5.718;2023-09-18T10:31:29;20.70;83.00
81315;DHT22;72214;52.510;5.718;2023-09-18T10:33:59;20.70;83.00
81315;DHT22;72214;52.510;5.718;2023-09-18T10:36:29;20.60;83.00
81315;DHT22;72214;52.510;5.718;2023-09-18T10:38:59;20.60;82.90
81315;DHT22;72214;52.510;5.718;2023-09-18T10:41:36;20.60;82.80
81315;DHT22;72214;52.510;5.718;2023-09-18T10:44:06;20.60;82.70
81315;DHT22;72214;52.510;5.718;2023-09-18T10:46:36;20.60;82.60
81315;DHT22;72214;52.510;5.718;2023-09-18T10:49:05;20.60;82.40
81315;DHT22;72214;52.510;5.718;2023-09-18T10:51:35;20.60;82.30
81315;DHT22;72214;52.510;5.718;2023-09-18T10:54:09;20.60;82.30
81315;DHT22;72214;52.510;5.718;2023-09-18T10:56:41;20.60;82.20
81315;DHT22;72214;52.510;5.718;2023-09-18T10:59:11;20.70;82.20
81315;DHT22;72214;52.510;5.718;2023-09-18T11:01:43;20.70;82.10
81315;DHT22;72214;52.510;5.718;2023-09-18T11:04:18;20.80;81.90
81315;DHT22;72214;52.510;5.718;2023-09-18T11:07:04;21.00;81.80
81315;DHT22;72214;52.510;5.718;2023-09-18T11:09:42;21.10;81.50
81315;DHT22;72214;52.510;5.718;2023-09-18T11:12:15;21.10;81.50
81315;DHT22;72214;52.510;5.718;2023-09-18T11:14:46;21.10;81.40
81315;DHT22;72214;52.510;5.718;2023-09-18T11:17:28;21.10;81.30
81315;DHT22;72214;52.510;5.718;2023-09-18T11:20:02;21.20;81.20
81315;DHT22;72214;52.510;5.718;2023-09-18T11:22:35;21.20;81.20
81315;DHT22;72214;52.510;5.718;2023-09-18T11:28:25;21.20;81.10
81315;DHT22;72214;52.510;5.718;2023-09-18T11:30:56;21.30;81.10
81315;DHT22;72214;52.510;5.718;2023-09-18T11:33:31;21.40;81.00
81315;DHT22;72214;52.510;5.718;2023-09-18T11:36:04;21.50;80.70
81315;DHT22;72214;52.510;5.718;2023-09-18T11:38:35;21.70;80.50
81315;DHT22;72214;52.510;5.718;2023-09-18T11:41:22;21.80;80.40
81315;DHT22;72214;52.510;5.718;2023-09-18T11:46:59;22.00;79.70
81315;DHT22;72214;52.510;5.718;2023-09-18T11:49:30;22.00;79.90
81315;DHT22;72214;52.510;5.718;2023-09-18T11:52:00;22.00;79.80
81315;DHT22;72214;52.510;5.718;2023-09-18T11:54:31;22.10;79.70
81315;DHT22;72214;52.510;5.718;2023-09-18T11:57:04;22.10;79.60
81315;DHT22;72214;52.510;5.718;2023-09-18T11:59:37;22.20;79.50
81315;DHT22;72214;52.510;5.718;2023-09-18T12:02:07;22.30;79.30
81315;DHT22;72214;52.510;5.718;2023-09-18T12:04:37;22.40;79.20
81315;DHT22;72214;52.510;5.718;2023-09-18T12:07:07;22.40;79.00
81315;DHT22;72214;52.510;5.718;2023-09-18T12:09:39;22.40;78.80
81315;DHT22;72214;52.510;5.718;2023-09-18T12:12:08;22.50;78.70
81315;DHT22;72214;52.510;5.718;2023-09-18T12:14:43;22.50;78.60
81315;DHT22;72214;52.510;5.718;2023-09-18T12:17:14;22.50;78.40
81315;DHT22;72214;52.510;5.718;2023-09-18T12:19:51;22.60;78.40
81315;DHT22;72214;52.510;5.718;2023-09-18T12:22:25;22.70;78.00
81315;DHT22;72214;52.510;5.718;2023-09-18T12:25:08;22.70;78.00
81315;DHT22;72214;52.510;5.718;2023-09-18T12:27:38;22.60;77.80
81315;DHT22;72214;52.510;5.718;2023-09-18T12:30:11;22.60;78.00
81315;DHT22;72214;52.510;5.718;2023-09-18T12:32:41;22.60;77.90
81315;DHT22;72214;52.510;5.718;2023-09-18T12:35:13;22.60;77.80
81315;DHT22;72214;52.510;5.718;2023-09-18T12:37:44;22.70;77.70
81315;DHT22;72214;52.510;5.718;2023-09-18T12:40:25;22.70;77.50
81315;DHT22;72214;52.510;5.718;2023-09-18T12:42:55;22.80;77.30
81315;DHT22;72214;52.510;5.718;2023-09-18T12:45:29;22.80;77.30
81315;DHT22;72214;52.510;5.718;2023-09-18T12:47:58;22.80;77.20
81315;DHT22;72214;52.510;5.718;2023-09-18T12:50:30;22.80;77.20
81315;DHT22;72214;52.510;5.718;2023-09-18T12:53:11;22.80;77.10
81315;DHT22;72214;52.510;5.718;2023-09-18T12:55:41;22.80;77.00
81315;DHT22;72214;52.510;5.718;2023-09-18T12:58:11;22.70;77.20
81315;DHT22;72214;52.510;5.718;2023-09-18T13:00:48;22.70;77.50
81315;DHT22;72214;52.510;5.718;2023-09-18T13:03:18;22.80;77.10
81315;DHT22;72214;52.510;5.718;2023-09-18T13:05:49;22.80;77.00
81315;DHT22;72214;52.510;5.718;2023-09-18T13:08:21;22.90;76.80
81315;DHT22;72214;52.510;5.718;2023-09-18T13:10:50;22.90;76.60
81315;DHT22;72214;52.510;5.718;2023-09-18T13:13:21;23.00;76.50
81315;DHT22;72214;52.510;5.718;2023-09-18T13:15:57;23.00;76.40
81315;DHT22;72214;52.510;5.718;2023-09-18T13:18:27;23.00;76.10
81315;DHT22;72214;52.510;5.718;2023-09-18T13:20:57;23.00;76.10
81315;DHT22;72214;52.510;5.718;2023-09-18T13:23:30;23.00;76.10
81315;DHT22;72214;52.510;5.718;2023-09-18T13:26:00;23.00;76.00
81315;DHT22;72214;52.510;5.718;2023-09-18T13:28:29;23.00;76.00
81315;DHT22;72214;52.510;5.718;2023-09-18T13:31:05;23.10;76.00
81315;DHT22;72214;52.510;5.718;2023-09-18T13:33:38;23.10;75.90
81315;DHT22;72214;52.510;5.718;2023-09-18T13:36:10;23.10;75.70
81315;DHT22;72214;52.510;5.718;2023-09-18T13:38:41;23.10;75.80
81315;DHT22;72214;52.510;5.718;2023-09-18T13:41:11;23.20;75.70
81315;DHT22;72214;52.510;5.718;2023-09-18T13:43:40;23.20;75.40
81315;DHT22;72214;52.510;5.718;2023-09-18T13:46:13;23.10;75.30
81315;DHT22;72214;52.510;5.718;2023-09-18T13:48:42;23.10;75.20
81315;DHT22;72214;52.510;5.718;2023-09-18T13:51:11;23.10;75.00
81315;DHT22;72214;52.510;5.718;2023-09-18T13:53:40;23.10;74.90
81315;DHT22;72214;52.510;5.718;2023-09-18T13:56:10;23.20;74.70
81315;DHT22;72214;52.510;5.718;2023-09-18T13:58:39;23.20;74.60
81315;DHT22;72214;52.510;5.718;2023-09-18T14:01:08;23.30;74.40
81315;DHT22;72214;52.510;5.718;2023-09-18T14:03:40;23.30;74.20
81315;DHT22;72214;52.510;5.718;2023-09-18T14:06:11;23.30;74.00
81315;DHT22;72214;52.510;5.718;2023-09-18T14:08:40;23.30;74.00
81315;DHT22;72214;52.510;5.718;2023-09-18T14:11:09;23.40;73.80
81315;DHT22;72214;52.510;5.718;2023-09-18T14:13:39;23.40;73.70
81315;DHT22;72214;52.510;5.718;2023-09-18T14:16:09;23.40;73.50
81315;DHT22;72214;52.510;5.718;2023-09-18T14:18:43;23.40;73.40
81315;DHT22;72214;52.510;5.718;2023-09-18T14:21:12;23.40;73.20
81315;DHT22;72214;52.510;5.718;2023-09-18T14:23:41;23.40;73.20
81315;DHT22;72214;52.510;5.718;2023-09-18T14:26:10;23.50;73.10
81315;DHT22;72214;52.510;5.718;2023-09-18T14:28:40;23.40;73.10
81315;DHT22;72214;52.510;5.718;2023-09-18T14:31:11;23.50;73.00
81315;DHT22;72214;52.510;5.718;2023-09-18T14:33:43;23.50;73.00
81315;DHT22;72214;52.510;5.718;2023-09-18T14:36:13;23.60;72.80
81315;DHT22;72214;52.510;5.718;2023-09-18T14:38:42;23.60;72.80
81315;DHT22;72214;52.510;5.718;2023-09-18T14:41:11;23.60;72.70
81315;DHT22;72214;52.510;5.718;2023-09-18T14:43:41;23.60;72.70
81315;DHT22;72214;52.510;5.718;2023-09-18T14:46:11;23.60;72.70
81315;DHT22;72214;52.510;5.718;2023-09-18T14:48:42;23.60;72.60
81315;DHT22;72214;52.510;5.718;2023-09-18T14:51:12;23.60;72.50
81315;DHT22;72214;52.510;5.718;2023-09-18T14:53:41;23.70;72.40
81315;DHT22;72214;52.510;5.718;2023-09-18T14:56:10;23.70;72.30
81315;DHT22;72214;52.510;5.718;2023-09-18T14:58:42;23.60;72.30
81315;DHT22;72214;52.510;5.718;2023-09-18T15:01:12;23.60;72.20
81315;DHT22;72214;52.510;5.718;2023-09-18T15:03:44;23.60;72.20
81315;DHT22;72214;52.510;5.718;2023-09-18T15:06:14;23.50;72.10
81315;DHT22;72214;52.510;5.718;2023-09-18T15:08:43;23.40;72.20
81315;DHT22;72214;52.510;5.718;2023-09-18T15:11:12;23.30;72.10
81315;DHT22;72214;52.510;5.718;2023-09-18T15:13:43;23.10;72.10
81315;DHT22;72214;52.510;5.718;2023-09-18T15:16:12;23.00;72.10
81315;DHT22;72214;52.510;5.718;2023-09-18T15:18:44;22.90;72.10
81315;DHT22;72214;52.510;5.718;2023-09-18T15:21:15;22.80;72.10
81315;DHT22;72214;52.510;5.718;2023-09-18T15:23:44;22.70;72.10
81315;DHT22;72214;52.510;5.718;2023-09-18T15:26:14;22.60;72.00
81315;DHT22;72214;52.510;5.718;2023-09-18T15:28:44;22.60;72.00
81315;DHT22;72214;52.510;5.718;2023-09-18T15:31:13;22.50;72.00
81315;DHT22;72214;52.510;5.718;2023-09-18T15:33:46;22.50;71.90
81315;DHT22;72214;52.510;5.718;2023-09-18T15:36:15;22.40;71.80
81315;DHT22;72214;52.510;5.718;2023-09-18T15:38:44;22.30;71.90
81315;DHT22;72214;52.510;5.718;2023-09-18T15:41:14;22.20;72.00
81315;DHT22;72214;52.510;5.718;2023-09-18T15:43:43;22.10;72.20
81315;DHT22;72214;52.510;5.718;2023-09-18T15:46:15;22.00;72.30
81315;DHT22;72214;52.510;5.718;2023-09-18T15:48:47;21.90;72.50
81315;DHT22;72214;52.510;5.718;2023-09-18T15:51:16;21.70;72.70
81315;DHT22;72214;52.510;5.718;2023-09-18T15:53:45;21.50;73.10
81315;DHT22;72214;52.510;5.718;2023-09-18T15:56:15;21.10;73.70
81315;DHT22;72214;52.510;5.718;2023-09-18T15:58:46;20.80;74.20